Time;durP1;ratioP1;P1;durP2;ratioP2;P2;SDS_P1;SDS_P2;PMS_P1;PMS_P2;Temp;Humidity;BMP_temperature;BMP_pressure;BME280_temperature;BME280_humidity;BME280_pressure;Samples;Min_cycle;Max_cycle;Signal;HPM_P1;HPM_P2
2022/07/16 00:03:24;;;;;;;5.97;2.17;;;;;;;14.53;62.14;100157.41;5007357;28;20220;-64
2022/07/16 00:05:51;;;;;;;4.53;1.85;;;;;;;14.53;61.73;100149.44;5007257;28;20046;-65
2022/07/16 00:08:17;;;;;;;4.00;2.22;;;;;;;14.53;61.95;100150.31;5007669;28;20580;-65
2022/07/16 00:10:44;;;;;;;3.17;1.90;;;;;;;14.55;62.21;100160.84;5007580;28;20891;-64
2022/07/16 00:13:12;;;;;;;2.35;1.90;;;;;;;14.53;62.08;100152.09;5007510;28;20123;-65
2022/07/16 00:15:39;;;;;;;4.50;2.33;;;;;;;14.51;62.13;100143.38;5006818;28;20050;-66
2022/07/16 00:20:50;;;;;;;6.78;2.13;;;;;;;14.38;62.23;100154.72;5007902;28;20080;-65
2022/07/16 00:23:16;;;;;;;3.05;2.20;;;;;;;14.38;62.60;100146.75;5014976;28;20064;-65
2022/07/16 00:25:43;;;;;;;6.03;2.60;;;;;;;14.42;62.21;100149.22;5026047;28;20056;-65
2022/07/16 00:28:09;;;;;;;4.55;2.40;;;;;;;14.45;62.31;100149.03;5026927;28;20055;-65
2022/07/16 00:30:37;;;;;;;5.30;2.20;;;;;;;14.42;62.23;100144.75;5026921;28;20045;-65
2022/07/16 00:33:04;;;;;;;8.13;2.55;;;;;;;14.44;62.39;100142.88;5027049;28;20052;-65
2022/07/16 00:35:30;;;;;;;5.00;2.08;;;;;;;14.46;61.91;100145.44;5025542;28;20045;-65
2022/07/16 00:37:57;;;;;;;4.35;2.40;;;;;;;14.47;61.76;100136.53;5026012;28;20615;-65
2022/07/16 00:40:23;;;;;;;5.18;2.95;;;;;;;14.43;61.91;100135.88;5019640;28;20053;-65
2022/07/16 00:42:50;;;;;;;8.88;2.20;;;;;;;14.41;62.07;100132.44;5007441;28;20046;-65
2022/07/16 00:45:17;;;;;;;5.35;1.80;;;;;;;14.39;62.30;100139.66;5020301;28;20152;-65
2022/07/16 00:47:45;;;;;;;7.53;2.75;;;;;;;14.38;62.28;100132.66;5025981;28;20092;-65
2022/07/16 00:50:11;;;;;;;5.15;2.30;;;;;;;14.32;62.83;100144.47;5026445;28;20057;-66
2022/07/16 00:52:38;;;;;;;9.70;2.67;;;;;;;14.25;63.07;100140.47;5026114;28;20053;-65
2022/07/16 00:55:05;;;;;;;3.65;2.72;;;;;;;14.20;62.87;100133.72;5025295;28;20064;-65
2022/07/16 00:57:32;;;;;;;8.38;2.88;;;;;;;14.22;62.58;100135.34;5013265;28;20056;-66
2022/07/16 00:59:58;;;;;;;6.72;2.50;;;;;;;14.23;62.79;100131.75;5006329;28;20046;-65
2022/07/16 01:02:25;;;;;;;6.15;3.35;;;;;;;14.24;63.30;100130.78;4992591;28;20056;-65
2022/07/16 01:04:53;;;;;;;5.85;2.20;;;;;;;14.23;62.94;100128.25;5006058;28;20509;-65
2022/07/16 01:07:22;;;;;;;4.43;2.40;;;;;;;14.20;63.27;100123.09;5006340;28;20054;-65
2022/07/16 01:09:49;;;;;;;5.72;2.63;;;;;;;14.16;63.14;100128.59;5006323;28;20052;-65
2022/07/16 01:12:16;;;;;;;5.05;2.50;;;;;;;14.17;63.14;100140.91;5006371;28;20053;-65
2022/07/16 01:14:45;;;;;;;6.05;2.72;;;;;;;14.13;63.38;100134.09;5005754;28;20141;-64
2022/07/16 01:17:11;;;;;;;4.47;2.33;;;;;;;14.15;63.27;100140.16;5006597;28;20482;-64
2022/07/16 01:19:38;;;;;;;6.60;2.92;;;;;;;14.18;63.41;100136.47;5015375;28;20045;-64
2022/07/16 01:22:06;;;;;;;4.72;2.50;;;;;;;14.17;63.84;100127.63;5026351;28;20107;-65
2022/07/16 01:24:34;;;;;;;9.65;2.97;;;;;;;14.14;63.75;100133.13;5025390;28;20152;-63
2022/07/16 01:27:00;;;;;;;5.00;2.15;;;;;;;14.13;64.00;100130.59;5025857;28;20057;-62
2022/07/16 01:29:27;;;;;;;10.27;2.92;;;;;;;14.10;63.63;100128.09;5025852;28;20053;-65
2022/07/16 01:31:53;;;;;;;5.78;3.10;;;;;;;14.07;63.74;100123.81;5026393;28;20045;-63
2022/07/16 01:34:26;;;;;;;8.73;2.65;;;;;;;14.11;62.96;100125.38;5025416;28;20053;-66
2022/07/16 01:36:55;;;;;;;6.22;2.85;;;;;;;14.14;63.65;100121.69;5025751;28;20488;-65
2022/07/16 01:39:23;;;;;;;4.93;2.40;;;;;;;14.11;63.05;100121.88;5025908;28;20058;-65
2022/07/16 01:41:52;;;;;;;7.30;3.03;;;;;;;14.07;63.78;100128.28;5006825;28;20049;-65
2022/07/16 01:44:19;;;;;;;7.68;2.70;;;;;;;14.04;63.25;100125.81;5005519;28;20659;-65
2022/07/16 01:46:45;;;;;;;3.83;2.83;;;;;;;14.01;63.56;100132.16;5005820;28;20060;-65
2022/07/16 01:49:12;;;;;;;9.70;3.58;;;;;;;14.01;63.73;100133.94;5006086;28;20058;-65
2022/07/16 01:51:39;;;;;;;5.07;2.70;;;;;;;14.00;63.56;100135.72;5006426;28;20050;-65
2022/07/16 01:54:06;;;;;;;6.43;2.45;;;;;;;13.99;63.57;100138.47;5005263;28;20054;-65
2022/07/16 01:56:32;;;;;;;10.65;3.17;;;;;;;13.95;63.59;100143.09;5005494;28;20042;-64
2022/07/16 01:59:00;;;;;;;3.25;2.40;;;;;;;13.92;64.11;100138.81;5005694;28;20041;-64
2022/07/16 02:01:27;;;;;;;6.00;3.03;;;;;;;13.88;64.34;100134.66;5005867;28;20067;-66
2022/07/16 02:03:53;;;;;;;9.13;3.15;;;;;;;13.84;64.52;100133.13;5005432;28;20057;-65
2022/07/16 02:06:20;;;;;;;5.07;2.90;;;;;;;13.79;64.53;100137.81;5005695;28;20056;-65
2022/07/16 02:08:46;;;;;;;5.00;2.47;;;;;;;13.77;64.36;100131.75;5005642;28;20052;-65
2022/07/16 02:11:13;;;;;;;4.00;2.63;;;;;;;13.73;64.77;100138.16;5006055;28;20073;-68
2022/07/16 02:13:39;;;;;;;3.75;2.33;;;;;;;13.68;64.94;100124.31;5005848;28;20417;-65
2022/07/16 02:16:08;;;;;;;6.68;2.88;;;;;;;13.59;64.95;100112.47;5014931;28;20057;-65
2022/07/16 02:18:35;;;;;;;6.80;2.53;;;;;;;13.50;65.62;100116.47;5025399;28;20045;-65
2022/07/16 02:21:02;;;;;;;4.13;2.58;;;;;;;13.48;65.76;100115.69;5025235;28;20505;-65
2022/07/16 02:23:28;;;;;;;3.90;2.50;;;;;;;13.39;66.47;100118.00;5025258;28;20107;-65
2022/07/16 02:25:55;;;;;;;8.73;3.28;;;;;;;13.44;65.53;100116.81;5025672;28;20798;-65
2022/07/16 02:28:22;;;;;;;4.05;2.65;;;;;;;13.46;65.21;100120.25;5026274;28;20059;-65
2022/07/16 02:30:50;;;;;;;6.97;2.85;;;;;;;13.50;65.29;100124.41;5025859;28;20045;-66
2022/07/16 02:33:19;;;;;;;5.95;2.70;;;;;;;13.56;65.32;100125.00;5025163;28;20080;-65
2022/07/16 02:35:46;;;;;;;5.50;2.80;;;;;;;13.60;65.07;100124.75;5024046;28;20412;-65
2022/07/16 02:38:14;;;;;;;5.05;2.47;;;;;;;13.64;64.30;100122.81;5024891;28;20061;-65
2022/07/16 02:40:42;;;;;;;5.72;2.75;;;;;;;13.67;65.16;100122.63;5015659;28;20042;-65
2022/07/16 02:43:09;;;;;;;7.75;2.65;;;;;;;13.65;65.37;100124.50;5005283;28;20053;-66
2022/07/16 02:45:38;;;;;;;7.82;2.92;;;;;;;13.68;64.19;100119.03;5005972;28;20425;-63
2022/07/16 02:48:06;;;;;;;8.05;3.33;;;;;;;13.64;64.39;100115.69;5006419;28;20521;-65
2022/07/16 02:50:34;;;;;;;8.25;3.65;;;;;;;13.62;64.63;100116.72;5006487;28;20049;-64
2022/07/16 02:53:01;;;;;;;5.65;2.85;;;;;;;13.61;65.24;100117.66;5006625;28;20102;-65
2022/07/16 02:55:28;;;;;;;5.85;3.15;;;;;;;13.59;65.15;100131.00;5022065;28;20050;-65
2022/07/16 02:57:56;;;;;;;8.60;2.97;;;;;;;13.56;64.60;100131.19;5013272;28;20050;-65
2022/07/16 03:00:23;;;;;;;9.45;3.97;;;;;;;13.54;64.86;100130.41;5014116;28;20104;-66
2022/07/16 03:02:50;;;;;;;4.40;2.72;;;;;;;13.53;65.33;100132.19;5009089;28;20088;-65
2022/07/16 03:05:17;;;;;;;8.93;3.40;;;;;;;13.59;65.48;100135.47;5008683;28;20064;-65
2022/07/16 03:07:45;;;;;;;4.93;2.25;;;;;;;13.62;64.81;100133.47;5008557;28;20041;-65
2022/07/16 03:10:12;;;;;;;13.52;3.20;;;;;;;13.62;64.94;100140.56;5008123;28;20054;-65
2022/07/16 03:12:39;;;;;;;4.10;2.80;;;;;;;13.64;65.17;100141.34;5021914;28;20046;-65
2022/07/16 03:15:07;;;;;;;4.28;2.30;;;;;;;13.66;64.65;100142.97;5027761;28;20132;-65
2022/07/16 03:17:35;;;;;;;7.47;2.95;;;;;;;13.69;65.13;100149.91;5028005;28;20524;-64
2022/07/16 03:20:02;;;;;;;7.63;3.08;;;;;;;13.72;64.69;100152.38;5028462;28;20521;-65
2022/07/16 03:22:28;;;;;;;5.63;3.03;;;;;;;13.74;64.64;100147.84;5028056;28;20073;-65
2022/07/16 03:24:56;;;;;;;3.13;2.60;;;;;;;13.76;65.05;100148.59;5027476;28;20136;-64
2022/07/16 03:27:23;;;;;;;6.03;2.70;;;;;;;13.77;64.99;100146.81;5028011;28;20608;-65
2022/07/16 03:29:50;;;;;;;8.15;2.92;;;;;;;13.73;65.17;100147.00;5028449;28;20052;-65
2022/07/16 03:32:16;;;;;;;5.97;2.60;;;;;;;13.75;65.31;100149.53;5028023;28;20053;-65
2022/07/16 03:34:43;;;;;;;5.70;2.83;;;;;;;13.79;65.41;100147.56;5027631;28;20049;-64
2022/07/16 03:37:10;;;;;;;6.05;3.22;;;;;;;13.84;65.15;100143.72;5028482;28;20058;-65
2022/07/16 03:39:36;;;;;;;8.45;4.20;;;;;;;13.88;65.23;100150.56;5026867;28;20417;-65
2022/07/16 03:42:05;;;;;;;4.82;3.28;;;;;;;13.87;64.97;100143.53;5008296;28;20046;-65
2022/07/16 03:44:31;;;;;;;5.18;2.38;;;;;;;13.88;65.17;100150.56;5007449;28;20498;-65
2022/07/16 03:46:59;;;;;;;5.28;2.70;;;;;;;13.95;64.66;100157.22;5008061;28;20053;-65
2022/07/16 03:49:25;;;;;;;6.15;2.75;;;;;;;14.00;64.58;100158.72;5007448;28;20145;-64
2022/07/16 03:51:52;;;;;;;8.88;2.55;;;;;;;14.02;64.43;100151.56;5008071;28;20054;-64
2022/07/16 03:54:18;;;;;;;7.63;3.38;;;;;;;14.03;64.60;100155.91;5007186;28;20053;-64
2022/07/16 03:56:45;;;;;;;10.32;3.13;;;;;;;14.04;64.97;100154.97;5007788;28;20054;-65
2022/07/16 03:59:13;;;;;;;5.82;2.55;;;;;;;14.06;64.96;100161.91;5007932;28;20153;-64
2022/07/16 04:01:40;;;;;;;5.45;2.72;;;;;;;14.11;64.90;100151.03;5008601;28;20504;-63
2022/07/16 04:04:07;;;;;;;4.57;2.55;;;;;;;14.15;64.43;100148.13;5008188;28;20065;-67
2022/07/16 04:06:34;;;;;;;5.70;2.85;;;;;;;14.21;64.60;100151.34;5009355;28;20049;-64
2022/07/16 04:09:00;;;;;;;4.18;2.78;;;;;;;14.24;64.29;100157.31;5023832;28;20056;-64
2022/07/16 04:11:27;;;;;;;8.60;2.92;;;;;;;14.29;64.66;100160.53;5027914;28;20541;-65
2022/07/16 04:13:53;;;;;;;4.45;2.80;;;;;;;14.30;64.58;100164.94;5027417;28;20061;-64
2022/07/16 04:16:21;;;;;;;5.88;3.30;;;;;;;14.37;64.01;100160.09;5027814;28;20046;-66
2022/07/16 04:18:48;;;;;;;5.47;3.05;;;;;;;14.47;63.89;100168.38;5027344;28;20088;-65
2022/07/16 04:21:15;;;;;;;6.00;2.60;;;;;;;14.57;64.03;100173.09;5027400;28;20107;-64
2022/07/16 04:23:41;;;;;;;5.07;2.70;;;;;;;14.65;63.01;100175.28;5027826;28;20049;-65
2022/07/16 04:26:08;;;;;;;6.43;3.30;;;;;;;14.73;62.87;100177.47;5026338;28;20045;-65
2022/07/16 04:28:36;;;;;;;5.60;3.10;;;;;;;14.78;61.49;100184.19;5022868;28;20060;-65
2022/07/16 04:31:02;;;;;;;4.05;3.20;;;;;;;14.88;61.08;100181.00;5027097;28;20056;-65
2022/07/16 04:33:30;;;;;;;8.18;3.75;;;;;;;14.95;61.28;100184.97;5026520;28;20157;-65
2022/07/16 04:35:57;;;;;;;5.95;2.72;;;;;;;15.00;60.65;100177.59;5018336;28;20048;-65
2022/07/16 04:38:23;;;;;;;6.53;3.25;;;;;;;15.08;60.27;100174.47;5027451;28;20060;-65
2022/07/16 04:40:50;;;;;;;6.63;3.40;;;;;;;15.11;61.49;100171.59;5016047;28;20050;-65
2022/07/16 04:43:16;;;;;;;6.80;3.00;;;;;;;15.13;60.72;100169.72;5007172;28;20065;-65
2022/07/16 04:45:43;;;;;;;6.25;3.53;;;;;;;15.21;60.51;100175.38;5009856;28;20045;-65
2022/07/16 04:48:09;;;;;;;6.78;2.85;;;;;;;15.26;60.60;100168.03;5026967;28;20057;-64
2022/07/16 04:50:38;;;;;;;4.40;2.72;;;;;;;15.32;60.96;100162.31;5026609;28;20061;-65
2022/07/16 04:53:04;;;;;;;4.32;2.70;;;;;;;15.40;60.58;100169.78;5026440;28;20057;-65
2022/07/16 04:55:31;;;;;;;4.35;2.67;;;;;;;15.43;60.91;100165.16;5025491;28;20054;-65
2022/07/16 04:57:57;;;;;;;5.40;3.10;;;;;;;15.50;60.26;100167.41;5026585;28;20059;-65
2022/07/16 05:00:24;;;;;;;11.57;3.08;;;;;;;15.58;60.37;100175.72;5026231;28;20084;-64
2022/07/16 05:02:59;;;;;;;6.13;3.05;;;;;;;15.67;59.57;100170.69;5026207;28;20053;-64
2022/07/16 05:05:30;;;;;;;;;;;;;;;15.78;59.74;100177.19;5025839;28;20435;-64
2022/07/16 05:07:59;;;;;;;5.38;2.42;;;;;;;15.83;59.01;100183.03;5026172;28;19925;-64
2022/07/16 05:10:25;;;;;;;5.50;2.88;;;;;;;15.90;58.60;100187.00;5026561;28;20527;-64
2022/07/16 05:12:53;;;;;;;6.13;2.55;;;;;;;15.94;57.91;100182.34;5026276;28;20045;-62
2022/07/16 05:15:20;;;;;;;4.35;3.35;;;;;;;15.94;58.01;100185.84;5026118;28;20056;-65
2022/07/16 05:17:47;;;;;;;6.93;2.95;;;;;;;16.00;57.52;100184.59;5026446;28;20212;-64
2022/07/16 05:20:14;;;;;;;8.48;3.90;;;;;;;16.02;57.15;100180.91;5027140;28;20517;-65
2022/07/16 05:22:41;;;;;;;6.80;3.20;;;;;;;16.07;56.77;100177.91;5026955;28;20141;-64
2022/07/16 05:25:11;;;;;;;4.10;2.83;;;;;;;16.11;56.78;100174.09;5025661;28;20870;-65
2022/07/16 05:27:38;;;;;;;9.98;4.00;;;;;;;16.16;56.76;100171.13;5026442;28;20055;-65
2022/07/16 05:30:06;;;;;;;7.88;3.10;;;;;;;16.27;56.62;100171.28;5026776;28;20064;-65
2022/07/16 05:32:34;;;;;;;7.82;3.00;;;;;;;16.38;56.27;100178.53;5028851;28;20049;-65
2022/07/16 05:35:01;;;;;;;6.40;3.00;;;;;;;16.48;55.98;100172.50;5026807;28;20436;-63
2022/07/16 05:37:28;;;;;;;11.98;3.47;;;;;;;16.59;56.38;100173.56;5026667;28;20156;-64
2022/07/16 05:39:54;;;;;;;5.60;2.88;;;;;;;16.72;56.11;100175.28;5027103;28;20049;-64
2022/07/16 05:42:22;;;;;;;5.70;2.60;;;;;;;16.86;55.37;100177.06;5026268;28;20053;-64
2022/07/16 05:44:49;;;;;;;4.15;2.55;;;;;;;16.99;54.63;100173.53;5024976;28;20072;-64
2022/07/16 05:47:15;;;;;;;10.38;3.53;;;;;;;17.17;54.14;100177.56;5025773;28;20055;-65
2022/07/16 05:49:42;;;;;;;7.03;3.15;;;;;;;17.36;53.45;100187.78;5025549;28;20046;-64
2022/07/16 05:52:09;;;;;;;11.80;3.67;;;;;;;17.32;53.44;100191.59;5026089;28;20527;-64
2022/07/16 05:54:35;;;;;;;8.73;3.10;;;;;;;17.31;53.96;100195.25;5024890;28;20061;-65
2022/07/16 05:57:02;;;;;;;7.28;3.50;;;;;;;17.41;53.37;100203.44;5025041;28;24376;-65
2022/07/16 05:59:30;;;;;;;11.27;3.53;;;;;;;17.48;53.23;100202.91;5025584;28;20053;-64
2022/07/16 06:01:56;;;;;;;3.95;2.97;;;;;;;17.52;53.09;100195.53;5024946;28;20046;-64
2022/07/16 06:04:23;;;;;;;6.43;2.70;;;;;;;17.54;52.84;100193.59;5024526;28;20627;-64
2022/07/16 06:06:50;;;;;;;5.70;3.28;;;;;;;17.54;52.69;100190.94;5025638;28;20048;-64
2022/07/16 06:09:16;;;;;;;6.45;3.47;;;;;;;17.60;53.29;100199.34;5025397;28;20049;-64
2022/07/16 06:11:43;;;;;;;8.52;3.33;;;;;;;17.63;53.16;100202.75;5025296;28;20425;-64
2022/07/16 06:14:09;;;;;;;4.95;2.63;;;;;;;17.73;52.96;100201.97;5025444;28;20132;-64
2022/07/16 06:16:40;;;;;;;5.38;2.67;;;;;;;17.84;52.92;100213.72;5025246;28;20041;-63
2022/07/16 06:19:06;;;;;;;8.02;2.92;;;;;;;17.88;52.79;100208.03;5025712;28;20057;-64
2022/07/16 06:21:33;;;;;;;7.28;3.20;;;;;;;18.04;52.11;100205.13;5025331;28;20057;-65
2022/07/16 06:23:59;;;;;;;7.18;3.33;;;;;;;18.23;51.33;100208.09;5024482;28;20076;-64
2022/07/16 06:26:26;;;;;;;5.05;2.75;;;;;;;18.34;51.07;100214.47;5024793;28;20053;-65
2022/07/16 06:28:52;;;;;;;5.03;2.65;;;;;;;18.39;51.29;100212.31;5025075;28;20049;-64
2022/07/16 06:31:19;;;;;;;5.13;2.35;;;;;;;18.45;50.58;100210.03;5025137;28;20057;-65
2022/07/16 06:33:47;;;;;;;5.28;2.30;;;;;;;18.52;50.43;100229.09;5024076;28;20049;-65
2022/07/16 06:36:14;;;;;;;3.78;2.40;;;;;;;18.60;50.63;100224.03;5024402;28;20057;-64
2022/07/16 06:38:40;;;;;;;8.57;3.38;;;;;;;18.63;50.66;100229.16;5025381;28;20049;-66
2022/07/16 06:41:07;;;;;;;6.65;3.15;;;;;;;18.65;50.65;100229.88;5011584;28;20081;-64
2022/07/16 06:43:33;;;;;;;7.57;2.92;;;;;;;18.72;51.02;100232.09;5005015;28;20048;-64
2022/07/16 06:46:00;;;;;;;6.05;3.28;;;;;;;18.64;52.31;100235.34;5004042;28;20056;-64
2022/07/16 06:48:27;;;;;;;6.00;3.70;;;;;;;18.68;51.60;100236.81;5004455;28;20056;-65
2022/07/16 06:50:55;;;;;;;15.73;5.30;;;;;;;18.77;51.67;100244.16;5009455;28;20132;-65
2022/07/16 06:53:21;;;;;;;8.95;3.65;;;;;;;18.82;51.83;100250.00;5023187;28;20056;-65
2022/07/16 06:55:48;;;;;;;7.22;3.40;;;;;;;18.88;52.62;100251.38;5023889;28;20049;-65
2022/07/16 06:58:14;;;;;;;12.82;4.35;;;;;;;18.96;53.23;100248.09;5023469;28;20060;-64
2022/07/16 07:00:41;;;;;;;8.30;4.10;;;;;;;19.02;53.98;100245.78;5025005;28;20156;-65
2022/07/16 07:03:07;;;;;;;8.02;4.65;;;;;;;19.07;53.87;100242.75;5024705;28;20050;-65
2022/07/16 07:05:34;;;;;;;6.65;4.15;;;;;;;19.07;54.04;100254.34;5024230;28;20046;-65
2022/07/16 07:08:02;;;;;;;12.07;4.20;;;;;;;19.05;54.03;100252.72;5024507;28;20053;-65
2022/07/16 07:10:29;;;;;;;11.63;5.20;;;;;;;19.06;54.36;100255.28;5025009;28;20521;-65
2022/07/16 07:12:55;;;;;;;8.55;4.72;;;;;;;19.13;54.71;100244.97;5024312;28;20060;-65
2022/07/16 07:15:22;;;;;;;14.50;5.20;;;;;;;19.16;55.37;100250.06;5023778;28;20524;-65
2022/07/16 07:17:50;;;;;;;7.45;4.18;;;;;;;19.24;55.15;100249.47;5024052;28;20067;-65
2022/07/16 07:20:17;;;;;;;9.15;4.32;;;;;;;19.34;54.77;100247.78;5014918;28;20050;-66
2022/07/16 07:22:43;;;;;;;7.35;4.22;;;;;;;19.46;54.20;100245.97;5023305;28;20421;-64
2022/07/16 07:25:11;;;;;;;12.23;4.43;;;;;;;19.64;53.90;100249.00;5024697;28;20132;-66
2022/07/16 07:27:38;;;;;;;9.43;4.40;;;;;;;19.71;54.04;100256.47;5025101;28;20042;-63
2022/07/16 07:30:05;;;;;;;8.80;4.05;;;;;;;19.75;53.49;100251.72;5025033;28;20517;-64
2022/07/16 07:32:32;;;;;;;8.82;5.18;;;;;;;19.73;53.51;100249.16;5024408;28;20059;-64
2022/07/16 07:34:58;;;;;;;8.95;4.55;;;;;;;19.77;53.56;100255.13;5024146;28;20124;-65
2022/07/16 07:37:25;;;;;;;7.18;4.55;;;;;;;19.77;53.55;100255.13;5024303;28;20595;-64
2022/07/16 07:39:52;;;;;;;8.30;3.55;;;;;;;19.96;53.47;100251.81;5021732;28;20076;-64
2022/07/16 07:42:20;;;;;;;12.63;4.28;;;;;;;20.25;52.56;100254.78;5004855;28;20046;-64
2022/07/16 07:44:46;;;;;;;8.40;3.60;;;;;;;20.35;52.25;100258.41;5003715;28;20045;-64
2022/07/16 07:47:13;;;;;;;9.10;4.55;;;;;;;20.56;51.47;100254.94;5008668;28;20054;-65
2022/07/16 07:49:39;;;;;;;6.72;3.67;;;;;;;20.50;51.59;100256.28;5008574;28;20056;-65
2022/07/16 07:52:07;;;;;;;7.03;3.53;;;;;;;20.46;52.01;100257.50;5008226;28;20065;-64
2022/07/16 07:54:34;;;;;;;15.13;6.07;;;;;;;20.44;51.91;100258.63;5025771;28;20056;-64
2022/07/16 07:57:01;;;;;;;9.95;4.68;;;;;;;20.27;52.40;100252.81;5019364;28;20049;-64
2022/07/16 07:59:29;;;;;;;6.22;3.78;;;;;;;20.32;52.07;100272.03;5008366;28;20069;-65
2022/07/16 08:01:56;;;;;;;7.95;3.15;;;;;;;20.31;51.79;100273.03;5008369;28;20523;-65
2022/07/16 08:04:22;;;;;;;12.07;3.17;;;;;;;20.25;51.93;100273.50;5007535;28;20073;-65
2022/07/16 08:06:49;;;;;;;8.45;3.28;;;;;;;20.31;52.03;100273.03;5008669;28;20053;-66
2022/07/16 08:09:15;;;;;;;8.52;3.80;;;;;;;20.27;52.13;100276.06;5008141;28;20141;-66
2022/07/16 08:11:42;;;;;;;16.15;3.50;;;;;;;20.33;52.53;100276.44;5008295;28;20056;-65
2022/07/16 08:14:09;;;;;;;10.15;4.45;;;;;;;20.45;52.41;100274.53;5007150;28;20061;-64
2022/07/16 08:16:37;;;;;;;12.98;3.20;;;;;;;20.57;52.07;100280.75;5007802;28;20132;-64
2022/07/16 08:19:03;;;;;;;8.70;3.42;;;;;;;20.61;51.92;100282.22;5007673;28;20506;-66
2022/07/16 08:21:30;;;;;;;6.55;3.40;;;;;;;20.60;51.31;100293.91;5007719;28;20461;-65
2022/07/16 08:26:41;;;;;;;4.85;3.28;;;;;;;20.66;51.10;100288.03;5007873;28;20052;-65
2022/07/16 08:29:08;;;;;;;7.65;3.38;;;;;;;20.64;51.43;100284.63;5007810;28;20054;-65
2022/07/16 08:31:34;;;;;;;5.97;3.10;;;;;;;20.85;50.85;100290.03;5007691;28;20050;-64
2022/07/16 08:34:06;;;;;;;5.95;3.50;;;;;;;21.04;50.74;100291.97;5007522;28;20049;-66
2022/07/16 08:36:33;;;;;;;5.93;3.15;;;;;;;21.09;51.10;100296.94;5008150;28;20079;-64
2022/07/16 08:39:00;;;;;;;7.80;4.80;;;;;;;20.99;50.97;100284.34;5007580;28;20054;-64
2022/07/16 08:41:28;;;;;;;7.18;3.47;;;;;;;21.18;51.06;100291.66;5007021;28;20085;-64
2022/07/16 08:43:55;;;;;;;5.13;3.67;;;;;;;21.41;50.18;100300.47;5009000;28;20050;-64
2022/07/16 08:46:22;;;;;;;5.97;3.65;;;;;;;21.48;49.63;100299.91;5027051;28;20053;-65
2022/07/16 08:48:50;;;;;;;5.03;3.28;;;;;;;21.52;49.38;100299.50;5025952;28;20057;-65
2022/07/16 08:51:21;;;;;;;11.25;2.95;;;;;;;21.53;49.47;100287.78;5026882;28;20698;-65
2022/07/16 08:53:49;;;;;;;8.05;3.63;;;;;;;21.52;49.14;100296.00;5026768;28;20129;-65
2022/07/16 08:56:17;;;;;;;6.32;2.85;;;;;;;21.41;49.96;100296.91;5024651;28;20053;-65
2022/07/16 08:58:43;;;;;;;5.72;3.42;;;;;;;21.91;48.75;100297.00;5025652;28;20115;-65
2022/07/16 09:01:10;;;;;;;8.82;3.15;;;;;;;22.30;47.90;100294.47;5026990;28;20130;-65
2022/07/16 09:03:37;;;;;;;7.13;3.22;;;;;;;22.36;47.25;100296.56;5026383;28;20515;-66
2022/07/16 09:06:04;;;;;;;6.47;3.53;;;;;;;22.54;47.57;100304.78;5025708;28;20053;-64
2022/07/16 09:08:32;;;;;;;5.75;2.92;;;;;;;22.78;47.09;100311.59;5026377;28;20480;-65
2022/07/16 09:11:17;;;;;;;7.55;4.00;;;;;;;23.29;45.82;100299.69;5026236;28;20136;-65
2022/07/16 09:13:59;;;;;;;5.97;3.40;;;;;;;23.56;45.07;100307.00;5025634;28;20450;-64
2022/07/16 09:16:28;;;;;;;11.25;3.30;;;;;;;23.84;44.88;100312.44;5026037;28;20116;-65
2022/07/16 09:19:03;;;;;;;8.68;4.10;;;;;;;24.22;43.95;100308.72;5026077;28;20298;-66
2022/07/16 09:21:30;;;;;;;;;;;;;;;24.56;43.20;100300.88;5026721;28;20049;-65
2022/07/16 09:23:58;;;;;;;5.32;3.42;;;;;;;24.94;42.01;100301.53;5025454;28;20548;-66
2022/07/16 09:26:27;;;;;;;7.55;3.28;;;;;;;25.37;40.69;100302.53;5025531;28;20045;-66
2022/07/16 09:28:55;;;;;;;3.80;2.50;;;;;;;24.50;42.28;100301.47;5026174;28;20055;-65
2022/07/16 09:31:39;;;;;;;4.88;3.03;;;;;;;24.07;42.56;100308.38;5025617;28;20132;-65
2022/07/16 09:34:08;;;;;;;5.60;3.17;;;;;;;23.63;43.20;100309.94;5025165;28;20064;-65
2022/07/16 09:36:35;;;;;;;5.95;2.90;;;;;;;23.64;43.42;100309.78;5025376;28;20049;-66
2022/07/16 09:39:05;;;;;;;3.72;2.97;;;;;;;24.50;42.09;100312.25;5025919;28;20132;-65
2022/07/16 09:41:43;;;;;;;8.65;3.08;;;;;;;24.28;42.69;100308.09;5026131;28;20064;-66
2022/07/16 09:44:14;;;;;;;7.35;2.63;;;;;;;24.00;42.29;100315.34;5024936;28;20054;-65
2022/07/16 09:46:57;;;;;;;10.45;4.78;;;;;;;23.49;43.27;100322.03;5025641;28;20056;-65
2022/07/16 09:49:27;;;;;;;5.53;3.33;;;;;;;23.20;44.08;100331.00;5025345;28;20508;-66
2022/07/16 09:51:54;;;;;;;6.68;4.28;;;;;;;23.09;44.39;100331.16;5025724;28;20046;-66
2022/07/16 09:54:32;;;;;;;5.93;3.13;;;;;;;22.59;45.57;100331.25;5025018;28;20049;-65
2022/07/16 09:57:15;;;;;;;5.70;3.08;;;;;;;22.53;46.17;100334.50;5025510;28;20049;-65
2022/07/16 09:59:42;;;;;;;6.13;2.78;;;;;;;23.81;43.43;100326.22;5025457;28;20853;-66
2022/07/16 10:02:10;;;;;;;5.72;3.47;;;;;;;24.68;42.03;100325.72;5025739;28;20057;-66
2022/07/16 10:04:36;;;;;;;4.00;2.88;;;;;;;24.64;41.51;100324.34;5024210;28;20041;-64
2022/07/16 10:07:03;;;;;;;6.45;2.90;;;;;;;23.83;43.09;100333.16;5026081;28;20505;-65
2022/07/16 10:09:31;;;;;;;3.90;2.60;;;;;;;23.37;44.00;100334.78;5025097;28;20053;-65
2022/07/16 10:12:05;;;;;;;6.85;2.63;;;;;;;23.00;44.83;100342.78;5025800;28;20140;-66
2022/07/16 10:14:33;;;;;;;6.00;2.95;;;;;;;22.77;45.01;100340.34;5024469;28;20103;-65
2022/07/16 10:17:00;;;;;;;7.40;2.85;;;;;;;22.45;46.62;100338.75;5025034;28;20049;-66
2022/07/16 10:19:36;;;;;;;6.90;2.92;;;;;;;22.42;47.04;100340.84;5025554;28;20049;-66
2022/07/16 10:22:17;;;;;;;3.70;2.15;;;;;;;22.45;47.25;100340.59;5025381;28;20588;-65
2022/07/16 10:24:47;;;;;;;7.65;3.75;;;;;;;23.36;45.35;100342.03;5024223;28;20080;-65
2022/07/16 10:27:19;;;;;;;5.38;2.55;;;;;;;25.03;42.38;100335.69;5025390;28;20052;-65
2022/07/16 10:29:45;;;;;;;3.63;2.25;;;;;;;26.33;39.71;100342.88;5024615;28;20409;-65
2022/07/16 10:32:30;;;;;;;5.55;2.38;;;;;;;27.15;37.46;100340.34;5025375;28;20045;-66
2022/07/16 10:35:00;;;;;;;3.83;2.30;;;;;;;27.92;35.33;100342.63;5024276;28;20610;-66
2022/07/16 10:37:30;;;;;;;5.53;2.28;;;;;;;28.36;34.46;100336.69;5025157;28;20527;-66
2022/07/16 10:40:07;;;;;;;4.55;2.50;;;;;;;28.70;33.77;100340.94;5024544;28;20056;-65
2022/07/16 10:42:35;;;;;;;3.08;1.95;;;;;;;27.10;35.14;100337.31;5024320;28;20053;-65
2022/07/16 10:45:02;;;;;;;3.13;1.77;;;;;;;26.74;36.38;100334.06;5017900;28;20053;-65
2022/07/16 10:47:48;;;;;;;2.67;1.50;;;;;;;26.73;36.42;100335.94;5024734;28;20049;-64
2022/07/16 10:50:21;;;;;;;2.65;1.83;;;;;;;25.80;38.10;100346.69;5024817;28;20045;-65
2022/07/16 10:52:49;;;;;;;5.22;1.98;;;;;;;25.04;40.03;100356.25;5025287;28;20049;-64
2022/07/16 10:55:40;;;;;;;5.03;1.85;;;;;;;24.18;41.86;100361.19;5024729;28;20064;-64
2022/07/16 10:58:07;;;;;;;5.50;1.80;;;;;;;23.90;42.83;100360.31;5024978;28;20119;-64
2022/07/16 11:00:34;;;;;;;7.95;1.80;;;;;;;25.35;40.13;100355.88;5025067;28;20099;-64
2022/07/16 11:03:04;;;;;;;6.05;2.80;;;;;;;26.25;38.01;100353.69;5024763;28;20424;-65
2022/07/16 11:05:32;;;;;;;6.00;1.90;;;;;;;26.65;36.79;100359.41;5024106;28;20509;-66
2022/07/16 11:08:09;;;;;;;2.45;1.80;;;;;;;25.88;37.54;100352.16;5024839;28;20049;-65
2022/07/16 11:10:38;;;;;;;2.15;1.27;;;;;;;25.48;38.23;100353.59;5024825;28;20065;-65
2022/07/16 11:13:11;;;;;;;4.20;1.63;;;;;;;25.48;38.32;100358.97;5024555;28;20049;-65
2022/07/16 11:15:38;;;;;;;2.38;1.85;;;;;;;24.78;39.23;100361.53;5024001;28;20056;-64
2022/07/16 11:18:15;;;;;;;9.45;1.92;;;;;;;24.16;40.67;100365.88;5024760;28;20061;-64
2022/07/16 11:20:42;;;;;;;3.17;2.17;;;;;;;24.07;40.44;100373.03;5025963;28;20115;-65
2022/07/16 11:23:10;;;;;;;4.78;2.22;;;;;;;24.17;40.31;100373.81;5029670;28;20049;-65
2022/07/16 11:25:53;;;;;;;5.07;1.90;;;;;;;24.32;39.55;100365.25;5028436;28;20056;-65
2022/07/16 11:28:20;;;;;;;5.43;1.95;;;;;;;24.53;38.90;100357.75;5028700;28;20055;-65
2022/07/16 11:31:00;;;;;;;2.55;1.48;;;;;;;24.71;37.85;100370.41;5028686;28;20085;-65
2022/07/16 11:33:34;;;;;;;4.70;2.90;;;;;;;24.55;38.00;100369.25;5028903;28;20140;-64
2022/07/16 11:36:08;;;;;;;4.57;1.70;;;;;;;24.10;38.07;100372.72;5027909;28;20054;-66